Time;durP1;ratioP1;P1;durP2;ratioP2;P2;SDS_P1;SDS_P2;PMS_P1;PMS_P2;Temp;Humidity;BMP_temperature;BMP_pressure;BME280_temperature;BME280_humidity;BME280_pressure;Samples;Min_cycle;Max_cycle;Signal;HPM_P1;HPM_P2
2022/12/20 00:01:23;;;;;;;61.47;26.30;;;;;;;0.40;80.16;101736.50;4491955;31;35308;-72
2022/12/20 00:03:52;;;;;;;59.13;26.00;;;;;;;0.67;77.80;101742.97;4474421;31;34415;-72
2022/12/20 00:06:21;;;;;;;57.72;25.88;;;;;;;0.56;77.92;101747.75;4486991;31;33470;-72
2022/12/20 00:08:56;;;;;;;58.28;24.37;;;;;;;0.44;79.19;101756.50;4485015;31;33324;-72
2022/12/20 00:11:24;;;;;;;56.13;24.58;;;;;;;0.66;78.21;101753.91;4485091;31;34791;-72
2022/12/20 00:13:52;;;;;;;58.50;25.23;;;;;;;0.64;79.02;101757.91;4487649;31;33846;-72
2022/12/20 00:16:25;;;;;;;58.45;27.10;;;;;;;0.56;79.18;101750.31;4485634;31;33746;-72
2022/12/20 00:18:55;;;;;;;52.55;24.50;;;;;;;0.64;77.96;101760.44;4490622;31;33773;-72
2022/12/20 00:21:24;;;;;;;56.78;23.73;;;;;;;0.79;77.67;101759.66;4484752;31;33142;-72
2022/12/20 00:23:52;;;;;;;61.75;26.50;;;;;;;0.89;77.22;101761.63;4492068;31;33789;-72
2022/12/20 00:26:24;;;;;;;57.25;25.50;;;;;;;0.67;78.19;101753.16;4484121;31;33256;-72
2022/12/20 00:28:52;;;;;;;62.42;25.55;;;;;;;0.64;78.84;101752.81;4488494;31;33753;-72
2022/12/20 00:31:21;;;;;;;55.78;23.92;;;;;;;0.39;79.85;101744.88;4483437;31;33982;-72
2022/12/20 00:33:50;;;;;;;58.63;26.37;;;;;;;0.27;79.94;101728.16;4484074;31;33146;-72
2022/12/20 00:36:18;;;;;;;55.90;25.58;;;;;;;0.28;80.71;101742.72;4483643;32;33672;-71
2022/12/20 00:38:47;;;;;;;60.20;24.98;;;;;;;0.53;79.95;101731.19;4488871;31;34746;-72
2022/12/20 00:41:17;;;;;;;53.30;25.33;;;;;;;0.45;79.37;101725.19;4488551;31;33459;-72
2022/12/20 00:43:45;;;;;;;69.72;26.42;;;;;;;0.46;78.71;101742.28;4489488;31;33335;-72
2022/12/20 00:46:14;;;;;;;58.35;25.05;;;;;;;0.23;80.43;101731.97;4491913;31;33691;-72
2022/12/20 00:48:42;;;;;;;59.80;24.80;;;;;;;0.66;77.76;101715.66;4496204;31;33491;-72
2022/12/20 00:51:15;;;;;;;57.80;24.35;;;;;;;0.85;78.27;101714.47;4497101;31;33920;-72
2022/12/20 00:53:43;;;;;;;59.45;26.10;;;;;;;0.45;79.43;101719.19;4496348;31;34775;-71
2022/12/20 00:56:11;;;;;;;58.35;24.17;;;;;;;0.69;77.86;101705.78;4496898;31;34730;-72
2022/12/20 00:58:41;;;;;;;52.80;23.98;;;;;;;0.53;78.58;101704.03;4485873;31;34520;-72
2022/12/20 01:01:21;;;;;;;52.92;23.48;;;;;;;0.45;79.03;101703.91;4499181;31;33735;-72
2022/12/20 01:03:50;;;;;;;59.60;24.80;;;;;;;0.56;78.80;101704.41;4495194;31;34259;-72
2022/12/20 01:06:19;;;;;;;55.72;24.48;;;;;;;0.27;79.72;101705.22;4499396;31;33676;-72
2022/12/20 01:08:46;;;;;;;54.85;23.45;;;;;;;0.53;78.87;101704.03;4498675;31;33872;-72
2022/12/20 01:11:17;;;;;;;57.83;24.25;;;;;;;0.42;78.59;101704.44;4480858;31;34773;-72
2022/12/20 01:13:49;;;;;;;59.30;24.90;;;;;;;0.55;78.30;101707.66;4493030;31;33638;-72
2022/12/20 01:16:24;;;;;;;57.33;23.12;;;;;;;0.48;78.11;101694.94;4499027;31;34282;-72
2022/12/20 01:18:53;;;;;;;64.12;25.05;;;;;;;0.71;78.15;101694.13;4496546;31;34619;-72
2022/12/20 01:21:23;;;;;;;58.35;24.63;;;;;;;0.90;77.48;101692.94;4494130;31;34441;-72
2022/12/20 01:23:50;;;;;;;56.42;24.33;;;;;;;1.11;75.94;101704.66;4489491;31;35079;-72
2022/12/20 01:26:21;;;;;;;53.03;24.00;;;;;;;1.00;75.95;101709.28;4498306;31;34239;-72
2022/12/20 01:28:52;;;;;;;51.80;23.80;;;;;;;0.95;76.71;101702.03;4495910;31;32953;-72
2022/12/20 01:31:20;;;;;;;54.88;22.52;;;;;;;1.01;76.29;101706.00;4485207;31;34773;-72
2022/12/20 01:33:49;;;;;;;52.30;23.45;;;;;;;1.34;74.93;101691.91;4495103;31;34095;-72
2022/12/20 01:36:19;;;;;;;57.45;22.58;;;;;;;1.07;76.36;101674.41;4499805;31;33369;-72
2022/12/20 01:38:47;;;;;;;54.03;23.50;;;;;;;0.96;75.98;101682.50;4492219;31;33069;-72
2022/12/20 01:41:16;;;;;;;57.90;22.10;;;;;;;1.09;75.72;101674.59;4488070;31;34729;-72
2022/12/20 01:43:52;;;;;;;51.95;23.27;;;;;;;0.98;77.03;101665.72;4491557;31;33783;-72
2022/12/20 01:46:23;;;;;;;49.63;23.20;;;;;;;1.07;75.32;101663.31;4488600;31;33594;-72
2022/12/20 01:49:06;;;;;;;51.90;22.73;;;;;;;0.88;76.11;101662.88;4494121;31;35210;-72
2022/12/20 01:51:36;;;;;;;51.45;22.15;;;;;;;0.80;77.29;101662.00;4494382;31;32437;-72
2022/12/20 01:54:09;;;;;;;57.70;24.67;;;;;;;0.89;76.16;101650.31;4495112;31;34634;-72
2022/12/20 01:56:37;;;;;;;49.30;22.45;;;;;;;0.94;76.87;101638.06;4487850;31;33545;-72
2022/12/20 01:59:05;;;;;;;52.20;22.45;;;;;;;1.36;74.76;101638.47;4493071;31;34567;-72
2022/12/20 02:01:33;;;;;;;55.17;23.60;;;;;;;0.52;77.44;101635.94;4498928;31;34067;-72
2022/12/20 02:04:02;;;;;;;51.63;22.13;;;;;;;0.13;79.62;101627.16;4488340;31;33602;-72
2022/12/20 02:06:29;;;;;;;53.75;24.85;;;;;;;0.78;77.16;101625.22;4498280;31;33484;-72
2022/12/20 02:09:00;;;;;;;52.17;22.90;;;;;;;1.28;74.90;101632.53;4493276;31;34745;-72
2022/12/20 02:11:58;;;;;;;57.42;23.12;;;;;;;1.23;74.82;101617.44;4499248;31;33897;-72
2022/12/20 02:14:39;;;;;;;51.30;23.77;;;;;;;1.66;73.45;101622.12;4487248;31;33550;-72
2022/12/20 02:17:06;;;;;;;55.10;23.27;;;;;;;0.85;75.81;101622.63;4486828;31;34200;-72
2022/12/20 02:19:37;;;;;;;55.85;24.35;;;;;;;0.74;76.78;101620.50;4497887;31;34417;-72
2022/12/20 02:22:26;;;;;;;56.60;24.17;;;;;;;1.00;75.92;101617.41;4490917;31;33146;-72
2022/12/20 02:25:00;;;;;;;53.38;23.20;;;;;;;1.08;75.46;101619.16;4485034;32;33897;-72
2022/12/20 02:27:36;;;;;;;55.95;23.40;;;;;;;1.16;74.66;101626.06;4491326;31;33274;-72
2022/12/20 02:30:05;;;;;;;55.58;23.50;;;;;;;1.79;72.53;101619.28;4495017;31;34699;-72
2022/12/20 02:32:59;;;;;;;54.22;23.87;;;;;;;1.44;72.40;101627.44;4488453;31;34821;-72
2022/12/20 02:35:30;;;;;;;55.35;23.67;;;;;;;1.16;73.84;101620.97;4486062;31;33853;-72
2022/12/20 02:37:59;;;;;;;49.85;22.23;;;;;;;1.02;74.18;101621.03;4496915;31;32427;-72
2022/12/20 02:40:32;;;;;;;52.28;23.02;;;;;;;1.15;74.93;101609.81;4483910;31;36064;-72
2022/12/20 02:43:02;;;;;;;55.72;23.33;;;;;;;1.30;73.75;101605.50;4492631;31;33861;-72
2022/12/20 02:45:33;;;;;;;56.05;23.25;;;;;;;1.16;73.74;101603.09;4481756;31;34814;-72
2022/12/20 02:48:07;;;;;;;51.03;22.70;;;;;;;0.95;75.28;101611.81;4486458;31;32956;-72
2022/12/20 02:50:50;;;;;;;55.72;23.90;;;;;;;1.24;74.59;101615.06;4491858;31;33491;-72
2022/12/20 02:53:18;;;;;;;52.95;23.08;;;;;;;0.87;75.77;101605.84;4486532;31;33909;-72
2022/12/20 02:55:59;;;;;;;49.55;22.83;;;;;;;0.89;75.51;101604.38;4494756;31;33379;-72
2022/12/20 02:58:38;;;;;;;53.03;24.12;;;;;;;0.52;77.81;101595.13;4495273;31;33527;-72
2022/12/20 03:01:15;;;;;;;50.60;22.45;;;;;;;0.57;76.79;101583.78;4487951;31;33722;-72
2022/12/20 03:03:42;;;;;;;55.72;24.05;;;;;;;0.36;78.07;101581.38;4488957;31;33939;-72
2022/12/20 03:06:10;;;;;;;55.33;24.23;;;;;;;0.07;79.59;101581.50;4494324;31;34678;-72
2022/12/20 03:08:38;;;;;;;55.28;23.15;;;;;;;0.42;78.37;101578.63;4495269;31;33281;-72
2022/12/20 03:11:05;;;;;;;53.50;23.75;;;;;;;0.68;76.73;101581.56;4488404;31;33910;-72
2022/12/20 03:13:33;;;;;;;53.03;24.12;;;;;;;0.34;78.09;101583.75;4481035;31;33629;-72
2022/12/20 03:16:01;;;;;;;52.30;23.05;;;;;;;0.62;76.78;101579.25;4496395;31;34651;-72
2022/12/20 03:18:29;;;;;;;50.50;22.52;;;;;;;0.42;77.99;101587.16;4496503;31;33636;-72
2022/12/20 03:20:56;;;;;;;56.80;23.58;;;;;;;0.82;75.95;101586.56;4496669;31;33806;-72
2022/12/20 03:23:24;;;;;;;56.90;24.37;;;;;;;1.09;74.49;101581.06;4495561;31;32764;-72
2022/12/20 03:25:52;;;;;;;53.87;24.17;;;;;;;0.46;76.95;101568.94;4489590;31;33719;-72
2022/12/20 03:28:20;;;;;;;52.65;23.05;;;;;;;0.51;77.68;101566.91;4490703;31;33712;-72
2022/12/20 03:30:48;;;;;;;52.72;21.83;;;;;;;0.83;76.04;101578.19;4498836;31;34523;-72
2022/12/20 03:33:16;;;;;;;55.45;22.75;;;;;;;0.92;76.06;101574.09;4498753;31;33653;-72
2022/12/20 03:35:46;;;;;;;56.17;24.95;;;;;;;0.75;76.01;101574.78;4490656;31;32937;-72
2022/12/20 03:38:13;;;;;;;48.03;21.85;;;;;;;0.90;75.22;101570.47;4492055;31;33698;-72
2022/12/20 03:40:41;;;;;;;51.72;23.65;;;;;;;1.34;73.97;101576.13;4497688;31;33566;-72
2022/12/20 03:43:10;;;;;;;50.63;22.75;;;;;;;1.19;74.37;101580.44;4495714;31;33701;-72
2022/12/20 03:45:37;;;;;;;51.92;24.12;;;;;;;1.35;72.96;101589.06;4484753;32;33972;-72
2022/12/20 03:48:05;;;;;;;50.72;22.90;;;;;;;1.06;73.80;101587.47;4486615;31;34229;-72
2022/12/20 03:50:33;;;;;;;55.03;22.30;;;;;;;1.08;74.13;101583.44;4495986;31;34051;-72
2022/12/20 03:53:03;;;;;;;46.97;21.17;;;;;;;1.09;74.23;101587.81;4492108;31;33213;-72
2022/12/20 03:55:31;;;;;;;45.17;21.70;;;;;;;1.12;74.44;101590.69;4486551;31;33025;-72
2022/12/20 03:57:59;;;;;;;47.03;20.85;;;;;;;1.03;74.42;101577.84;4479518;31;32604;-72
2022/12/20 04:00:27;;;;;;;50.05;22.15;;;;;;;1.00;74.23;101576.59;4493667;31;33831;-72
2022/12/20 04:02:57;;;;;;;49.95;21.17;;;;;;;1.65;71.92;101569.25;4484681;31;34214;-72
2022/12/20 04:05:24;;;;;;;46.17;21.02;;;;;;;0.98;73.67;101567.12;4484268;32;33934;-72
2022/12/20 04:07:52;;;;;;;49.65;21.60;;;;;;;0.92;74.65;101573.19;4485454;31;33296;-72
2022/12/20 04:10:20;;;;;;;48.15;20.70;;;;;;;1.13;74.07;101559.34;4495906;31;34641;-72
2022/12/20 04:12:47;;;;;;;48.45;21.85;;;;;;;1.37;73.64;101546.72;4494413;31;34333;-72
2022/12/20 04:15:15;;;;;;;49.22;22.13;;;;;;;1.11;74.77;101535.31;4487294;31;33868;-72
2022/12/20 04:17:43;;;;;;;51.33;21.90;;;;;;;0.50;76.50;101535.41;4494853;31;34306;-72
2022/12/20 04:20:18;;;;;;;44.75;21.23;;;;;;;1.09;74.38;101526.56;4495618;31;33628;-72
2022/12/20 04:22:48;;;;;;;45.65;21.20;;;;;;;1.50;72.85;101517.41;4494037;31;34551;-72
2022/12/20 04:25:18;;;;;;;42.70;20.65;;;;;;;0.90;74.06;101518.53;4494810;31;33852;-72
2022/12/20 04:27:46;;;;;;;50.83;22.08;;;;;;;1.29;73.50;101521.97;4492168;31;33666;-72
2022/12/20 04:30:14;;;;;;;60.95;25.00;;;;;;;1.18;74.37;101527.59;4493436;31;34810;-72
2022/12/20 04:32:42;;;;;;;51.25;24.23;;;;;;;1.15;74.01;101514.47;4474327;31;33679;-72
2022/12/20 04:35:10;;;;;;;49.83;22.15;;;;;;;0.87;75.00;101514.00;4486593;31;34084;-72
2022/12/20 04:37:38;;;;;;;49.53;21.08;;;;;;;0.64;76.03;101515.63;4495453;31;34007;-72
2022/12/20 04:40:06;;;;;;;46.30;22.00;;;;;;;0.36;77.08;101515.09;4494483;31;33737;-72
2022/12/20 04:42:35;;;;;;;50.75;22.77;;;;;;;0.39;77.36;101515.47;4499036;31;33889;-72
2022/12/20 04:45:03;;;;;;;51.15;22.23;;;;;;;0.29;78.16;101527.88;4485574;31;34479;-72
2022/12/20 04:47:30;;;;;;;44.78;20.17;;;;;;;0.40;77.45;101524.91;4479718;31;33401;-72
2022/12/20 04:49:58;;;;;;;50.05;20.30;;;;;;;0.82;76.06;101527.88;4497830;31;34369;-72
2022/12/20 04:55:15;;;;;;;49.45;20.75;;;;;;;0.67;76.45;101538.94;4494186;31;34555;-72
2022/12/20 04:57:43;;;;;;;43.95;19.77;;;;;;;0.91;75.05;101536.56;4491581;31;33248;-72
2022/12/20 05:00:14;;;;;;;43.35;20.45;;;;;;;1.13;74.21;101544.03;4497156;31;36511;-72
2022/12/20 05:02:42;;;;;;;49.45;19.98;;;;;;;1.24;74.61;101538.47;4496079;31;33791;-72
2022/12/20 05:05:10;;;;;;;44.60;18.98;;;;;;;1.21;73.77;101543.22;4490217;31;34001;-72
2022/12/20 05:07:39;;;;;;;44.53;20.08;;;;;;;1.22;73.80;101545.06;4475644;31;32890;-72
2022/12/20 05:10:07;;;;;;;38.45;18.83;;;;;;;1.19;73.85;101544.69;4493098;31;34630;-72
2022/12/20 05:12:34;;;;;;;43.47;18.80;;;;;;;1.01;74.23;101546.16;4498157;31;34008;-72
2022/12/20 05:15:03;;;;;;;43.67;18.77;;;;;;;1.40;73.22;101542.69;4485437;31;34889;-72
2022/12/20 05:17:31;;;;;;;43.90;20.12;;;;;;;0.98;74.33;101551.81;4497490;31;33052;-72
2022/12/20 05:19:59;;;;;;;46.75;21.30;;;;;;;1.35;73.27;101552.37;4493879;31;34685;-72
2022/12/20 05:28:01;;;;;;;44.00;19.05;;;;;;;0.77;75.36;101557.06;4495313;31;32905;-72
2022/12/20 05:30:29;;;;;;;43.20;18.87;;;;;;;0.98;74.89;101564.59;4499453;31;34504;-72
2022/12/20 05:32:58;;;;;;;41.37;19.25;;;;;;;0.97;74.79;101566.97;4500165;31;34201;-72
2022/12/20 05:35:25;;;;;;;44.60;19.90;;;;;;;1.02;74.22;101559.81;4500841;31;34575;-72
2022/12/20 05:37:54;;;;;;;41.90;19.52;;;;;;;0.98;74.53;101554.38;4498033;31;34437;-72
2022/12/20 05:40:21;;;;;;;39.85;19.37;;;;;;;1.07;74.38;101556.13;4500788;31;33823;-72
2022/12/20 05:42:48;;;;;;;45.38;19.02;;;;;;;0.88;74.92;101554.06;4496332;31;33924;-72
2022/12/20 05:45:17;;;;;;;44.40;19.60;;;;;;;0.95;74.63;101559.13;4485099;31;34651;-72
2022/12/20 05:47:45;;;;;;;45.97;18.30;;;;;;;1.21;73.53;101542.31;4485358;32;33063;-72
2022/12/20 05:50:12;;;;;;;41.70;18.95;;;;;;;0.92;74.51;101548.56;4485446;32;33789;-72
2022/12/20 05:53:00;;;;;;;42.92;19.55;;;;;;;0.72;75.45;101548.91;4485425;32;33579;-72
2022/12/20 05:55:39;;;;;;;42.30;18.27;;;;;;;0.83;75.02;101541.53;4487319;31;34136;-72
2022/12/20 05:58:07;;;;;;;37.35;18.02;;;;;;;0.78;75.29;101536.84;4486755;31;34453;-72
2022/12/20 06:00:36;;;;;;;45.90;20.45;;;;;;;0.70;75.57;101534.19;4496518;31;34505;-72
2022/12/20 06:03:04;;;;;;;45.85;21.17;;;;;;;0.49;76.83;101528.50;4484207;32;33971;-72
2022/12/20 06:05:37;;;;;;;46.30;20.62;;;;;;;0.84;74.98;101520.41;4492236;31;33893;-72
2022/12/20 06:08:05;;;;;;;43.35;19.35;;;;;;;0.72;75.38;101522.50;4488815;31;33470;-73
2022/12/20 06:10:33;;;;;;;42.10;19.08;;;;;;;1.00;74.53;101515.34;4493056;31;33679;-72
2022/12/20 06:13:02;;;;;;;40.08;19.08;;;;;;;1.08;73.56;101517.09;4486160;31;33964;-72
2022/12/20 06:15:30;;;;;;;43.22;19.85;;;;;;;0.92;74.74;101504.28;4490963;31;33423;-72
2022/12/20 06:18:01;;;;;;;46.15;20.75;;;;;;;0.73;74.86;101519.19;4493915;31;33575;-73
2022/12/20 06:20:28;;;;;;;43.53;19.17;;;;;;;0.61;75.65;101512.75;4496696;31;34009;-72
2022/12/20 06:22:58;;;;;;;44.80;20.30;;;;;;;0.44;76.99;101503.22;4492454;31;33884;-71
2022/12/20 06:25:28;;;;;;;40.67;19.23;;;;;;;0.85;75.11;101501.78;4486988;31;32571;-71
2022/12/20 06:27:56;;;;;;;41.75;20.00;;;;;;;0.77;74.77;101508.59;4497566;31;32021;-71
2022/12/20 06:30:24;;;;;;;45.58;20.50;;;;;;;0.57;75.91;101517.50;4495258;31;36517;-71
2022/12/20 06:33:01;;;;;;;47.80;22.15;;;;;;;0.80;74.61;101518.25;4491060;31;33894;-71
2022/12/20 06:35:29;;;;;;;42.30;19.77;;;;;;;1.00;73.97;101507.69;4485900;31;32461;-71
2022/12/20 06:37:56;;;;;;;43.67;18.60;;;;;;;1.09;73.74;101511.25;4497958;31;33380;-71
2022/12/20 06:40:24;;;;;;;38.25;18.50;;;;;;;0.69;75.62;101511.97;4488380;31;33820;-71
2022/12/20 06:42:52;;;;;;;43.08;19.00;;;;;;;0.71;74.88;101507.94;4485072;32;33707;-71
2022/12/20 06:45:20;;;;;;;45.50;19.20;;;;;;;0.48;76.63;101506.25;4481755;32;33864;-71
2022/12/20 06:47:47;;;;;;;35.63;18.37;;;;;;;0.65;75.73;101504.69;4484784;32;33353;-71
2022/12/20 06:50:16;;;;;;;37.40;18.50;;;;;;;0.52;76.21;101503.34;4483596;32;33178;-71
2022/12/20 06:52:43;;;;;;;44.53;19.35;;;;;;;0.97;74.36;101486.22;4484303;31;33776;-72
2022/12/20 06:55:11;;;;;;;41.15;18.10;;;;;;;0.76;75.45;101486.41;4500329;31;33453;-71
2022/12/20 06:57:39;;;;;;;34.55;16.83;;;;;;;0.81;75.00;101485.25;4496591;31;34307;-71
2022/12/20 07:00:07;;;;;;;39.85;18.60;;;;;;;0.96;73.76;101489.47;4489388;31;34494;-71
2022/12/20 07:02:35;;;;;;;41.47;18.70;;;;;;;1.24;72.09;101487.41;4483384;32;34019;-72
2022/12/20 07:05:03;;;;;;;41.45;19.23;;;;;;;1.03;73.29;101482.53;4484113;31;33804;-71
2022/12/20 07:07:30;;;;;;;42.08;19.20;;;;;;;0.93;74.03;101484.06;4485057;31;33307;-72
2022/12/20 07:09:58;;;;;;;43.08;19.73;;;;;;;0.72;75.01;101486.81;4483363;31;34519;-71
2022/12/20 07:12:26;;;;;;;42.28;18.62;;;;;;;0.85;74.12;101472.12;4487875;31;33789;-71
2022/12/20 07:14:53;;;;;;;41.08;18.25;;;;;;;0.63;75.75;101478.13;4486634;31;33667;-72
2022/12/20 07:17:21;;;;;;;40.80;18.62;;;;;;;1.01;74.42;101478.91;4486091;31;32911;-71
2022/12/20 07:19:48;;;;;;;42.35;20.27;;;;;;;0.93;74.80;101472.97;4486043;31;33933;-71
2022/12/20 07:22:17;;;;;;;39.58;18.17;;;;;;;0.96;74.95;101474.16;4484476;32;34656;-71
2022/12/20 07:24:46;;;;;;;36.53;18.23;;;;;;;0.74;75.51;101475.13;4485123;31;33862;-71
2022/12/20 07:27:14;;;;;;;38.75;17.58;;;;;;;0.70;76.01;101483.19;4486892;31;33518;-71
2022/12/20 07:29:41;;;;;;;39.50;18.50;;;;;;;0.85;75.06;101495.06;4488050;31;34631;-71
2022/12/20 07:32:10;;;;;;;38.78;18.15;;;;;;;1.21;73.67;101489.62;4491032;31;33931;-71
2022/12/20 07:34:38;;;;;;;42.83;17.77;;;;;;;1.20;73.65;101495.47;4466701;32;34142;-72
2022/12/20 07:37:07;;;;;;;39.08;18.33;;;;;;;1.64;72.02;101495.91;4485018;31;33309;-71
2022/12/20 07:39:34;;;;;;;35.78;16.75;;;;;;;1.75;71.80;101491.19;4490116;31;34020;-71
2022/12/20 07:42:03;;;;;;;36.88;16.85;;;;;;;1.67;72.42;101499.69;4486815;31;34574;-71
2022/12/20 07:44:34;;;;;;;44.88;18.30;;;;;;;1.53;72.71;101495.66;4484363;31;33442;-71
2022/12/20 07:47:01;;;;;;;40.95;18.75;;;;;;;1.63;71.88;101492.44;4497139;31;33680;-72
2022/12/20 07:49:29;;;;;;;37.60;16.70;;;;;;;1.70;72.10;101502.59;4492375;31;34400;-72
2022/12/20 07:51:58;;;;;;;38.40;18.15;;;;;;;1.72;72.43;101485.78;4484524;32;33768;-71
2022/12/20 07:54:28;;;;;;;39.17;16.65;;;;;;;1.80;72.17;101478.00;4482020;31;34066;-71
2022/12/20 07:57:00;;;;;;;35.47;15.90;;;;;;;1.53;72.57;101471.78;4495537;31;33546;-71
2022/12/20 07:59:35;;;;;;;39.10;18.25;;;;;;;1.15;74.67;101471.09;4492568;31;33753;-71
2022/12/20 08:02:03;;;;;;;;;;;;;;;1.63;72.56;101474.56;4484290;32;33843;-71
2022/12/20 08:04:33;;;;;;;35.33;16.48;;;;;;;1.14;74.40;101466.72;4480721;31;33654;-71
2022/12/20 08:07:00;;;;;;;39.35;17.67;;;;;;;1.54;73.02;101468.47;4478716;31;33194;-72
2022/12/20 08:09:30;;;;;;;36.47;16.92;;;;;;;1.63;73.16;101463.44;4482832;32;34411;-71
2022/12/20 08:11:58;;;;;;;36.63;17.60;;;;;;;2.01;71.37;101447.06;4482993;32;33723;-71
2022/12/20 08:14:26;;;;;;;37.80;15.27;;;;;;;1.77;72.26;101438.59;4484215;32;34106;-71
2022/12/20 08:16:53;;;;;;;35.90;16.52;;;;;;;1.40;73.43;101438.00;4483058;32;33300;-71
2022/12/20 08:19:21;;;;;;;35.75;17.17;;;;;;;1.81;72.14;101439.84;4488718;31;33327;-71
2022/12/20 08:21:56;;;;;;;33.38;15.23;;;;;;;1.49;72.92;101436.44;4469737;32;33308;-71
2022/12/20 08:24:24;;;;;;;32.55;15.45;;;;;;;1.50;73.54;101441.69;4484162;32;33635;-71
2022/12/20 08:26:51;;;;;;;34.28;15.52;;;;;;;1.84;71.84;101447.84;4483417;32;33644;-71
2022/12/20 08:29:19;;;;;;;30.30;14.98;;;;;;;1.91;70.95;101445.19;4482384;32;33248;-71
2022/12/20 08:31:47;;;;;;;33.97;16.27;;;;;;;2.00;70.40;101442.69;4484228;31;34066;-71
2022/12/20 08:34:17;;;;;;;35.45;15.35;;;;;;;1.95;70.82;101443.84;4483732;32;33900;-71
2022/12/20 08:36:44;;;;;;;34.50;16.08;;;;;;;2.17;70.24;101450.47;4479339;32;34207;-71
2022/12/20 08:39:12;;;;;;;30.90;14.57;;;;;;;2.20;69.96;101446.41;4486921;31;34543;-71
2022/12/20 08:41:39;;;;;;;34.35;16.50;;;;;;;1.93;70.86;101450.44;4484695;31;33471;-71
2022/12/20 08:44:08;;;;;;;33.25;14.70;;;;;;;2.39;69.31;101434.78;4485288;31;33970;-71
2022/12/20 08:46:36;;;;;;;28.40;14.20;;;;;;;2.26;69.31;101431.72;4487961;31;33390;-71
2022/12/20 08:49:04;;;;;;;29.12;13.45;;;;;;;2.44;68.93;101436.19;4483282;32;33731;-71
2022/12/20 08:51:32;;;;;;;34.35;16.12;;;;;;;1.99;70.98;101433.22;4486725;31;33693;-71
2022/12/20 08:54:01;;;;;;;29.90;13.38;;;;;;;1.91;71.56;101426.37;4493117;31;34515;-72
2022/12/20 08:56:29;;;;;;;32.03;14.30;;;;;;;1.98;70.50;101428.84;4487681;31;33691;-71
2022/12/20 08:58:56;;;;;;;35.95;14.68;;;;;;;1.73;72.25;101426.25;4484395;31;33691;-71
2022/12/20 09:01:25;;;;;;;32.67;14.35;;;;;;;1.71;72.19;101426.84;4486655;31;34083;-71
2022/12/20 09:03:53;;;;;;;30.73;14.27;;;;;;;2.02;70.46;101420.75;4479450;31;34625;-71
2022/12/20 09:06:21;;;;;;;31.33;13.68;;;;;;;2.19;70.64;101429.28;4485156;31;33934;-72
2022/12/20 09:08:49;;;;;;;28.52;13.30;;;;;;;2.22;69.67;101434.69;4466774;32;34418;-71
2022/12/20 09:11:19;;;;;;;31.90;14.70;;;;;;;2.54;68.43;101440.59;4483533;31;33676;-72
2022/12/20 09:13:50;;;;;;;28.55;13.55;;;;;;;2.34;69.94;101442.00;4486807;31;36047;-72
2022/12/20 09:16:22;;;;;;;33.45;14.80;;;;;;;2.72;68.05;101436.44;4487186;31;33335;-71
2022/12/20 09:18:52;;;;;;;29.77;13.77;;;;;;;2.43;68.95;101434.34;4482856;32;34412;-72
2022/12/20 09:21:23;;;;;;;29.42;13.57;;;;;;;2.28;70.14;101437.88;4485123;31;34699;-72
2022/12/20 09:23:52;;;;;;;30.23;12.85;;;;;;;2.67;67.99;101438.53;4474981;32;35564;-71
2022/12/20 09:26:21;;;;;;;30.58;13.43;;;;;;;2.45;69.39;101440.53;4479394;31;34211;-71
2022/12/20 09:28:49;;;;;;;29.27;13.90;;;;;;;2.69;67.58;101441.25;4480008;31;34432;-73
2022/12/20 09:31:19;;;;;;;30.67;14.23;;;;;;;2.35;68.74;101427.56;4498581;31;34584;-71
2022/12/20 09:33:47;;;;;;;29.90;14.35;;;;;;;2.27;71.01;101416.53;4490153;31;33823;-71
2022/12/20 09:36:17;;;;;;;30.33;13.57;;;;;;;2.58;68.34;101398.31;4486128;31;33113;-71
2022/12/20 09:38:45;;;;;;;29.40;14.35;;;;;;;2.34;69.34;101395.97;4485144;32;33530;-71
2022/12/20 09:41:36;;;;;;;27.42;13.13;;;;;;;2.54;68.42;101390.31;4488462;31;32688;-71
2022/12/20 09:44:28;;;;;;;29.60;14.65;;;;;;;1.81;70.76;101403.16;4480304;31;33929;-71
2022/12/20 09:47:03;;;;;;;29.17;13.23;;;;;;;2.50;69.02;101374.53;4496625;31;33365;-71
2022/12/20 09:49:39;;;;;;;30.58;13.30;;;;;;;2.61;69.50;101376.53;4484480;32;33908;-71
2022/12/20 09:52:40;;;;;;;27.87;13.00;;;;;;;2.27;69.09;101379.84;4492844;31;33770;-71
2022/12/20 09:55:34;;;;;;;27.73;13.25;;;;;;;2.56;68.73;101373.47;4496315;31;33943;-71
2022/12/20 09:58:44;;;;;;;27.48;12.55;;;;;;;2.36;68.83;101383.34;4490934;31;33285;-71
2022/12/20 10:01:25;;;;;;;27.20;13.25;;;;;;;2.95;67.33;101387.59;4471875;31;33866;-71
2022/12/20 10:04:03;;;;;;;27.05;12.80;;;;;;;3.29;66.00;101363.69;4476043;31;34840;-71
2022/12/20 10:06:43;;;;;;;30.27;12.60;;;;;;;2.83;68.29;101374.47;4481506;32;33595;-72
2022/12/20 10:09:28;;;;;;;28.05;13.10;;;;;;;3.59;65.55;101380.25;4472437;31;33957;-71
2022/12/20 10:12:02;;;;;;;31.85;13.15;;;;;;;3.68;65.87;101373.47;4498287;31;33389;-72
2022/12/20 10:14:51;;;;;;;30.98;13.02;;;;;;;3.50;65.83;101370.03;4492338;31;34807;-71
2022/12/20 10:17:27;;;;;;;26.35;12.63;;;;;;;3.91;64.04;101360.31;4474475;31;33985;-71
2022/12/20 10:20:07;;;;;;;26.70;12.13;;;;;;;3.48;66.10;101360.38;4498754;31;33621;-71
2022/12/20 10:22:43;;;;;;;31.73;13.18;;;;;;;3.84;64.05;101354.44;4481982;31;33683;-71
2022/12/20 10:25:18;;;;;;;24.60;11.48;;;;;;;3.73;64.57;101356.88;4479825;31;33971;-71
2022/12/20 10:27:47;;;;;;;25.52;12.32;;;;;;;3.94;64.53;101358.06;4479931;31;33675;-72
2022/12/20 10:30:17;;;;;;;28.02;12.88;;;;;;;3.01;66.74;101349.78;4477717;31;33537;-71
2022/12/20 10:32:48;;;;;;;27.60;13.77;;;;;;;2.86;68.25;101344.06;4495982;31;33855;-71
2022/12/20 10:35:30;;;;;;;29.63;12.88;;;;;;;2.81;69.25;101342.69;4484263;31;33989;-71
2022/12/20 10:37:57;;;;;;;28.02;12.88;;;;;;;3.61;65.58;101324.97;4479015;32;33954;-72
2022/12/20 10:40:43;;;;;;;26.30;12.45;;;;;;;3.68;67.76;101324.78;4485602;31;33503;-72
2022/12/20 10:43:41;;;;;;;30.80;14.10;;;;;;;3.89;66.17;101319.91;4487351;31;34589;-72
2022/12/20 10:46:10;;;;;;;28.98;12.02;;;;;;;4.08;63.52;101318.34;4479436;31;33876;-72
2022/12/20 10:48:40;;;;;;;26.65;12.48;;;;;;;4.20;63.36;101310.91;4487243;31;34489;-72
2022/12/20 10:51:07;;;;;;;25.90;12.45;;;;;;;4.05;63.09;101302.66;4486726;31;33125;-72
2022/12/20 10:53:58;;;;;;;27.37;13.13;;;;;;;3.90;65.70;101306.31;4493500;31;33544;-72
2022/12/20 10:56:37;;;;;;;26.02;12.43;;;;;;;4.62;61.71;101310.53;4487060;31;34574;-72
2022/12/20 10:59:14;;;;;;;27.15;14.07;;;;;;;4.73;61.59;101294.47;4481230;31;34487;-72
2022/12/20 11:01:43;;;;;;;25.98;12.45;;;;;;;4.69;62.91;101281.19;4490578;31;33327;-72
2022/12/20 11:04:25;;;;;;;31.35;13.10;;;;;;;4.50;62.64;101282.06;4483303;31;32305;-72
2022/12/20 11:06:53;;;;;;;25.35;11.38;;;;;;;4.70;63.00;101283.00;4485841;31;33966;-72
2022/12/20 11:09:25;;;;;;;29.23;14.00;;;;;;;4.98;60.16;101280.38;4492560;31;35502;-72
2022/12/20 11:12:06;;;;;;;33.20;13.43;;;;;;;4.86;59.48;101265.66;4489574;31;33548;-72
2022/12/20 11:14:36;;;;;;;27.73;12.37;;;;;;;4.50;61.06;101259.00;4493457;31;33933;-72
2022/12/20 11:17:37;;;;;;;27.05;12.90;;;;;;;4.33;61.85;101248.84;4484085;31;33595;-72
2022/12/20 11:20:27;;;;;;;29.05;12.52;;;;;;;4.61;62.38;101241.09;4483151;31;33938;-72
2022/12/20 11:23:06;;;;;;;28.20;12.77;;;;;;;4.80;61.68;101243.69;4482807;31;33215;-72
2022/12/20 11:25:57;;;;;;;27.67;12.88;;;;;;;4.38;62.45;101247.56;4470014;31;33711;-71
2022/12/20 11:28:35;;;;;;;30.33;13.20;;;;;;;4.59;62.46;101263.16;4498634;31;33675;-71
2022/12/20 11:31:18;;;;;;;27.05;12.88;;;;;;;4.95;62.50;101254.44;4490598;31;33453;-71
2022/12/20 11:34:15;;;;;;;26.42;12.63;;;;;;;5.03;60.95;101263.72;4480419;31;33002;-71
2022/12/20 11:37:02;;;;;;;27.02;12.15;;;;;;;5.41;58.61;101237.97;4461132;31;33274;-71
2022/12/20 11:39:57;;;;;;;28.00;13.45;;;;;;;5.23;59.38;101240.72;4488987;31;33566;-71
2022/12/20 11:42:46;;;;;;;29.35;13.20;;;;;;;4.97;59.41;101233.25;4481038;32;34623;-71
2022/12/20 11:45:53;;;;;;;27.45;13.77;;;;;;;4.69;60.83;101235.91;4478459;31;33474;-71